createdAt,value
2018-08-20T00:02:10.330Z,6.90
2018-08-20T00:04:45.623Z,7.13
2018-08-20T00:07:16.051Z,7.20
2018-08-20T00:09:47.049Z,7.50
2018-08-20T00:12:19.738Z,7.20
2018-08-20T00:14:50.072Z,7.00
2018-08-20T00:17:20.426Z,6.60
2018-08-20T00:19:50.691Z,7.37
2018-08-20T00:22:21.143Z,7.90
2018-08-20T00:25:02.217Z,7.60
2018-08-20T00:27:33.369Z,7.80
2018-08-20T00:30:03.762Z,8.13
2018-08-20T00:32:34.085Z,7.27
2018-08-20T00:35:04.562Z,7.20
2018-08-20T00:37:35.166Z,7.13
2018-08-20T00:40:05.676Z,7.57
2018-08-20T00:42:36.302Z,7.30
2018-08-20T00:45:06.852Z,7.27
2018-08-20T00:47:37.216Z,7.43
2018-08-20T00:50:08.276Z,6.97
2018-08-20T00:52:39.565Z,7.77
2018-08-20T00:55:12.239Z,7.60
2018-08-20T00:57:42.708Z,8.20
2018-08-20T01:00:13.339Z,7.90
2018-08-20T01:02:43.914Z,7.97
2018-08-20T01:05:14.454Z,7.83
2018-08-20T01:07:45.206Z,7.37
2018-08-20T01:10:15.571Z,7.37
2018-08-20T01:12:46.058Z,8.00
2018-08-20T01:15:16.524Z,8.00
2018-08-20T01:17:47.158Z,7.53
2018-08-20T01:20:17.821Z,8.23
2018-08-20T01:22:48.302Z,8.37
2018-08-20T01:25:18.656Z,7.97
2018-08-20T01:27:50.390Z,8.03
2018-08-20T01:30:20.802Z,7.87
2018-08-20T01:32:51.315Z,8.37
2018-08-20T01:35:27.251Z,7.83
2018-08-20T01:37:57.752Z,8.30
2018-08-20T01:40:28.061Z,7.97
2018-08-20T01:42:58.489Z,8.87
2018-08-20T01:45:28.927Z,8.33
2018-08-20T01:47:59.444Z,8.70
2018-08-20T01:50:30.024Z,8.67
2018-08-20T01:53:00.493Z,8.50
2018-08-20T01:55:30.995Z,8.20
2018-08-20T01:58:01.474Z,8.63
2018-08-20T02:00:32.064Z,8.70
2018-08-20T02:03:03.577Z,8.87
2018-08-20T02:05:34.064Z,8.40
2018-08-20T02:08:04.654Z,8.53
2018-08-20T02:10:35.107Z,8.70
2018-08-20T02:13:05.375Z,8.03
2018-08-20T02:15:36.001Z,8.50
2018-08-20T02:18:07.315Z,8.60
2018-08-20T02:20:37.818Z,8.87
2018-08-20T02:23:08.228Z,8.67
2018-08-20T02:25:38.543Z,8.10
2018-08-20T02:28:08.923Z,8.70
2018-08-20T02:30:39.277Z,7.97
2018-08-20T02:33:10.624Z,8.43
2018-08-20T02:35:41.423Z,8.97
2018-08-20T02:38:11.908Z,8.13
2018-08-20T02:40:42.636Z,8.40
2018-08-20T02:43:13.156Z,9.03
2018-08-20T02:45:43.622Z,8.73
2018-08-20T02:48:14.173Z,8.73
2018-08-20T02:50:44.610Z,8.77
2018-08-20T02:53:15.223Z,8.53
2018-08-20T02:55:47.024Z,9.10
2018-08-20T02:58:17.467Z,9.40
2018-08-20T03:00:48.412Z,8.67
2018-08-20T03:03:18.759Z,9.33
2018-08-20T03:05:49.284Z,9.50
2018-08-20T03:08:19.822Z,8.90
2018-08-20T03:10:50.200Z,8.93
2018-08-20T03:13:20.678Z,9.07
2018-08-20T03:15:50.898Z,9.07
2018-08-20T03:18:21.254Z,9.57
2018-08-20T03:20:51.700Z,9.27
2018-08-20T03:23:22.021Z,9.50
2018-08-20T03:25:52.396Z,9.53
2018-08-20T03:28:22.918Z,9.13
2018-08-20T03:30:53.382Z,9.50
2018-08-20T03:33:23.769Z,9.23
2018-08-20T03:35:54.221Z,9.30
2018-08-20T03:38:24.919Z,9.50
2018-08-20T03:40:55.161Z,9.20
2018-08-20T03:43:25.740Z,10.17
2018-08-20T03:45:56.253Z,9.83
2018-08-20T03:48:26.578Z,9.23
2018-08-20T03:50:57.177Z,9.50
2018-08-20T03:53:27.702Z,9.37
2018-08-20T03:55:58.381Z,9.90
2018-08-20T03:58:29.301Z,9.17
2018-08-20T04:01:00.302Z,9.50
2018-08-20T04:03:31.392Z,9.93
2018-08-20T04:06:01.916Z,10.30
2018-08-20T04:08:32.382Z,9.67
2018-08-20T04:11:02.942Z,9.20
2018-08-20T04:13:33.378Z,9.27
2018-08-20T04:16:03.999Z,9.57
2018-08-20T04:18:34.400Z,9.40
2018-08-20T04:21:04.713Z,9.77
2018-08-20T04:23:35.227Z,10.30
2018-08-20T04:26:05.904Z,9.57
2018-08-20T04:28:36.403Z,9.67
2018-08-20T04:31:06.840Z,10.27
2018-08-20T04:33:37.217Z,9.63
2018-08-20T04:36:07.818Z,9.80
2018-08-20T04:38:38.129Z,10.10
2018-08-20T04:41:08.844Z,10.30
2018-08-20T04:43:39.760Z,10.20
2018-08-20T04:46:10.429Z,9.77
2018-08-20T04:48:40.958Z,10.30
2018-08-20T04:51:11.688Z,9.37
2018-08-20T04:53:43.380Z,10.03
2018-08-20T04:56:13.825Z,9.87
2018-08-20T04:58:44.176Z,10.50
2018-08-20T05:01:14.894Z,9.93
2018-08-20T05:03:45.529Z,10.47
2018-08-20T05:06:15.975Z,10.50
2018-08-20T05:08:46.711Z,10.37
2018-08-20T05:11:17.295Z,10.63
2018-08-20T05:13:47.712Z,10.30
2018-08-20T05:16:18.751Z,10.57
2018-08-20T05:18:49.162Z,9.73
2018-08-20T05:21:19.610Z,10.40
2018-08-20T05:23:50.232Z,9.70
2018-08-20T05:26:21.272Z,9.87
2018-08-20T05:28:52.677Z,9.40
2018-08-20T05:31:23.180Z,9.67
2018-08-20T05:33:54.093Z,9.53
2018-08-20T05:36:24.873Z,9.53
2018-08-20T05:38:55.258Z,9.23
2018-08-20T05:41:25.532Z,8.60
2018-08-20T05:43:56.070Z,9.57
2018-08-20T05:46:26.553Z,9.73
2018-08-20T05:48:57.232Z,11.03
2018-08-20T05:51:27.680Z,9.73
2018-08-20T05:53:58.185Z,10.07
2018-08-20T05:56:28.555Z,9.97
2018-08-20T05:58:59.313Z,11.93
2018-08-20T06:01:30.248Z,9.37
2018-08-20T06:04:00.968Z,10.17
2018-08-20T06:06:31.264Z,9.73
2018-08-20T06:09:01.591Z,9.73
2018-08-20T06:11:31.963Z,9.30
2018-08-20T06:14:02.445Z,9.80
2018-08-20T06:16:32.686Z,9.07
2018-08-20T06:19:03.089Z,9.20
2018-08-20T06:21:34.293Z,8.70
2018-08-20T06:24:05.036Z,9.20
2018-08-20T06:26:35.448Z,8.70
2018-08-20T06:29:05.950Z,8.53
2018-08-20T06:31:36.413Z,8.13
2018-08-20T06:34:07.390Z,8.17
2018-08-20T06:36:38.049Z,8.73
2018-08-20T06:39:09.882Z,8.47
2018-08-20T06:41:40.404Z,7.63
2018-08-20T06:44:11.425Z,8.30
2018-08-20T06:46:42.551Z,6.93
2018-08-20T06:49:13.155Z,7.27
2018-08-20T06:51:44.472Z,7.00
2018-08-20T06:54:15.208Z,6.70
2018-08-20T06:56:46.223Z,7.10
2018-08-20T06:59:17.221Z,6.70
2018-08-20T07:01:47.947Z,6.63
2018-08-20T07:04:18.248Z,7.23
2018-08-20T07:06:48.544Z,6.90
2018-08-20T07:09:19.092Z,7.23
2018-08-20T07:11:49.625Z,7.03
2018-08-20T07:14:19.988Z,7.17
2018-08-20T07:16:50.585Z,7.00
2018-08-20T07:19:21.238Z,7.10
2018-08-20T07:21:51.730Z,6.97
2018-08-20T07:24:22.408Z,6.97
2018-08-20T07:26:53.284Z,6.73
2018-08-20T07:29:38.023Z,5.90
2018-08-20T07:32:11.671Z,6.13
2018-08-20T07:34:44.055Z,6.10
2018-08-20T07:37:15.923Z,6.47
2018-08-20T07:39:48.193Z,6.27
2018-08-20T07:42:18.653Z,6.27
2018-08-20T07:44:49.175Z,6.07
2018-08-20T07:47:19.701Z,6.07
2018-08-20T07:49:50.682Z,6.17
2018-08-20T07:52:21.078Z,5.93
2018-08-20T07:54:51.476Z,6.10
2018-08-20T07:57:21.954Z,6.13
2018-08-20T07:59:52.516Z,6.10
2018-08-20T08:02:23.180Z,5.33
2018-08-20T08:04:53.601Z,5.73
2018-08-20T08:07:24.072Z,5.60
2018-08-20T08:09:54.343Z,6.00
2018-08-20T08:12:24.760Z,5.90
2018-08-20T08:14:55.140Z,5.50
2018-08-20T08:17:25.539Z,5.70
2018-08-20T08:19:56.144Z,5.93
2018-08-20T08:22:26.769Z,5.83
2018-08-20T08:24:57.417Z,5.10
2018-08-20T08:27:27.958Z,5.40
2018-08-20T08:29:58.165Z,5.63
2018-08-20T08:32:28.953Z,5.27
2018-08-20T08:34:59.787Z,5.33
2018-08-20T08:37:30.206Z,5.60
2018-08-20T08:40:00.594Z,5.77
2018-08-20T08:42:30.818Z,5.67
2018-08-20T08:45:01.116Z,6.00
2018-08-20T08:47:31.446Z,5.50
2018-08-20T08:50:01.934Z,5.60
2018-08-20T08:52:32.635Z,5.33
2018-08-20T08:55:03.222Z,6.03
2018-08-20T08:57:33.510Z,5.30
2018-08-20T09:00:03.852Z,6.00
2018-08-20T09:02:34.254Z,5.50
2018-08-20T09:05:04.830Z,5.80
2018-08-20T09:07:35.320Z,5.37
2018-08-20T09:10:06.221Z,5.77
2018-08-20T09:12:36.833Z,5.03
2018-08-20T09:15:09.944Z,5.77
2018-08-20T09:17:40.551Z,5.93
2018-08-20T09:20:13.757Z,5.65
2018-08-20T09:22:44.806Z,5.43
2018-08-20T09:25:16.137Z,5.77
2018-08-20T09:27:46.815Z,5.33
2018-08-20T09:30:19.595Z,5.80
2018-08-20T09:32:50.542Z,5.90
2018-08-20T09:35:21.083Z,5.60
2018-08-20T09:37:51.394Z,5.80
2018-08-20T09:40:21.767Z,6.10
2018-08-20T09:42:52.012Z,5.92
2018-08-20T09:45:22.868Z,6.78
2018-08-20T09:47:53.481Z,5.90
2018-08-20T09:50:23.848Z,5.90
2018-08-20T09:52:54.392Z,6.28
2018-08-20T09:55:24.993Z,6.08
2018-08-20T09:57:55.756Z,6.50
2018-08-20T10:00:31.054Z,6.42
2018-08-20T10:03:01.671Z,6.45
2018-08-20T10:05:32.167Z,5.62
2018-08-20T10:08:02.887Z,6.28
2018-08-20T10:10:33.650Z,6.47
2018-08-20T10:13:04.048Z,6.53
2018-08-20T10:15:34.519Z,6.12
2018-08-20T10:18:05.343Z,6.47
2018-08-20T10:20:35.760Z,6.62
2018-08-20T10:23:07.384Z,5.72
2018-08-20T10:25:37.931Z,6.08
2018-08-20T10:28:08.890Z,5.92
2018-08-20T10:30:39.939Z,5.85
2018-08-20T10:33:10.422Z,5.87
2018-08-20T10:35:41.099Z,5.75
2018-08-20T10:38:11.673Z,5.87
2018-08-20T10:40:42.277Z,6.08
2018-08-20T10:43:13.375Z,6.17
2018-08-20T10:45:48.847Z,6.55
2018-08-20T10:48:19.301Z,5.55
2018-08-20T10:50:49.621Z,5.87
2018-08-20T10:53:19.856Z,5.80
2018-08-20T10:55:50.431Z,6.40
2018-08-20T10:58:20.775Z,5.75
2018-08-20T11:00:51.265Z,6.17
2018-08-20T11:03:21.528Z,5.92
2018-08-20T11:05:52.184Z,5.75
2018-08-20T11:08:22.721Z,5.87
2018-08-20T11:10:53.080Z,5.83
2018-08-20T11:13:23.610Z,5.55
2018-08-20T11:15:54.037Z,5.37
2018-08-20T11:18:24.400Z,5.97
2018-08-20T11:20:54.798Z,5.83
2018-08-20T11:23:25.096Z,5.30
2018-08-20T11:25:55.550Z,5.83
2018-08-20T11:28:26.251Z,5.33
2018-08-20T11:30:56.610Z,5.80
2018-08-20T11:33:26.940Z,5.42
2018-08-20T11:35:57.412Z,5.67
2018-08-20T11:38:27.761Z,5.50
2018-08-20T11:40:58.242Z,5.55
2018-08-20T11:43:28.718Z,5.30
2018-08-20T11:46:00.210Z,5.78
2018-08-20T11:48:30.748Z,5.42
2018-08-20T11:51:01.155Z,5.45
2018-08-20T11:53:31.510Z,5.35
2018-08-20T11:56:02.408Z,5.42
2018-08-20T11:58:33.147Z,5.55
2018-08-20T12:01:03.724Z,5.45
2018-08-20T12:03:34.399Z,5.55
2018-08-20T12:06:05.020Z,5.10
2018-08-20T12:08:35.782Z,5.33
2018-08-20T12:11:06.290Z,5.60
2018-08-20T12:13:36.566Z,5.03
2018-08-20T12:16:07.047Z,5.30
2018-08-20T12:18:37.461Z,5.08
2018-08-20T12:21:08.433Z,5.17
2018-08-20T12:23:38.671Z,4.75
2018-08-20T12:26:09.781Z,4.95
2018-08-20T12:28:40.408Z,4.58
2018-08-20T12:31:11.036Z,4.90
2018-08-20T12:33:41.714Z,4.05
2018-08-20T12:36:12.788Z,4.40
2018-08-20T12:38:43.284Z,4.70
2018-08-20T12:41:13.867Z,4.53
2018-08-20T12:43:44.529Z,4.87
2018-08-20T12:46:18.961Z,5.10
2018-08-20T12:48:51.560Z,4.72
2018-08-20T12:51:22.608Z,4.62
2018-08-20T12:53:52.993Z,4.75
2018-08-20T12:56:23.341Z,4.70
2018-08-20T12:58:54.039Z,4.30
2018-08-20T13:01:24.503Z,4.22
2018-08-20T13:03:54.885Z,3.98
2018-08-20T13:06:25.457Z,4.60
2018-08-20T13:08:55.774Z,4.67
2018-08-20T13:11:26.113Z,4.45
2018-08-20T13:13:56.667Z,4.72
2018-08-20T13:16:27.271Z,4.67
2018-08-20T13:18:57.659Z,4.45
2018-08-20T13:21:28.136Z,4.42
2018-08-20T13:23:58.686Z,4.78
2018-08-20T13:26:29.124Z,4.50
2018-08-20T13:28:59.492Z,4.83
2018-08-20T13:31:29.914Z,4.67
2018-08-20T13:34:00.197Z,4.45
2018-08-20T13:36:30.976Z,4.60
2018-08-20T13:39:01.552Z,4.60
2018-08-20T13:41:31.774Z,4.87
2018-08-20T13:44:02.341Z,4.72
2018-08-20T13:46:33.151Z,4.97
2018-08-20T13:49:03.709Z,4.50
2018-08-20T13:51:34.065Z,4.53
2018-08-20T13:54:04.617Z,4.22
2018-08-20T13:56:35.013Z,4.60
2018-08-20T13:59:05.512Z,4.50
2018-08-20T14:01:36.354Z,4.28
2018-08-20T14:04:06.804Z,4.87
2018-08-20T14:06:37.339Z,5.00
2018-08-20T14:09:09.660Z,4.72
2018-08-20T14:11:40.130Z,4.80
2018-08-20T14:14:11.143Z,4.83
2018-08-20T14:16:42.202Z,5.03
2018-08-20T14:19:12.831Z,4.75
2018-08-20T14:21:43.386Z,4.75
2018-08-20T14:24:13.966Z,5.17
2018-08-20T14:26:44.432Z,4.83
2018-08-20T14:29:15.177Z,4.62
2018-08-20T14:31:46.314Z,5.00
2018-08-20T14:34:16.692Z,4.83
2018-08-20T14:36:48.459Z,4.78
2018-08-20T14:39:19.123Z,5.30
2018-08-20T14:41:50.190Z,5.03
2018-08-20T14:44:20.400Z,4.72
2018-08-20T14:46:50.921Z,4.50
2018-08-20T14:49:21.226Z,4.70
2018-08-20T14:51:51.775Z,4.70
2018-08-20T14:54:22.652Z,4.40
2018-08-20T14:56:53.211Z,4.20
2018-08-20T14:59:23.737Z,4.65
2018-08-20T15:01:54.404Z,4.78
2018-08-20T15:04:24.913Z,4.17
2018-08-20T15:07:02.513Z,4.12
2018-08-20T15:09:32.916Z,4.17
2018-08-20T15:12:03.351Z,4.47
2018-08-20T15:14:33.785Z,4.70
2018-08-20T15:17:04.287Z,4.30
2018-08-20T15:19:34.747Z,4.67
2018-08-20T15:22:05.201Z,4.00
2018-08-20T15:24:35.742Z,4.40
2018-08-20T15:27:06.363Z,4.33
2018-08-20T15:29:36.890Z,4.28
2018-08-20T15:32:07.539Z,4.62
2018-08-20T15:34:38.397Z,4.20
2018-08-20T15:37:08.577Z,4.05
2018-08-20T15:39:39.218Z,4.20
2018-08-20T15:42:09.774Z,4.00
2018-08-20T15:44:40.369Z,4.72
2018-08-20T15:47:11.176Z,4.10
2018-08-20T15:49:43.001Z,3.95
2018-08-20T15:52:14.648Z,4.60
2018-08-20T15:54:45.216Z,3.80
2018-08-20T15:57:15.960Z,4.03
2018-08-20T15:59:46.324Z,5.20
2018-08-20T16:02:17.165Z,4.03
2018-08-20T16:04:47.597Z,4.33
2018-08-20T16:07:18.043Z,3.70
2018-08-20T16:09:49.046Z,4.00
2018-08-20T16:12:20.408Z,4.12
2018-08-20T16:14:51.893Z,4.50
2018-08-20T16:17:22.670Z,4.15
2018-08-20T16:19:53.416Z,4.22
2018-08-20T16:22:24.231Z,4.30
2018-08-20T16:24:54.422Z,4.45
2018-08-20T16:27:25.070Z,3.95
2018-08-20T16:29:55.522Z,4.35
2018-08-20T16:32:25.863Z,4.20
2018-08-20T16:34:56.179Z,4.10
2018-08-20T16:37:26.506Z,4.12
2018-08-20T16:39:56.849Z,3.65
2018-08-20T16:42:27.490Z,4.20
2018-08-20T16:44:58.354Z,3.90
2018-08-20T16:47:28.637Z,4.10
2018-08-20T16:49:59.012Z,3.50
2018-08-20T16:52:29.378Z,3.50
2018-08-20T16:54:59.844Z,3.77
2018-08-20T16:57:30.358Z,3.72
2018-08-20T17:00:00.757Z,3.52
2018-08-20T17:02:32.065Z,3.62
2018-08-20T17:05:02.354Z,3.37
2018-08-20T17:07:32.742Z,3.47
2018-08-20T17:10:03.143Z,3.12
2018-08-20T17:12:33.699Z,3.30
2018-08-20T17:15:04.181Z,3.20
2018-08-20T17:17:34.637Z,3.08
2018-08-20T17:20:05.390Z,3.47
2018-08-20T17:22:35.909Z,3.35
2018-08-20T17:25:07.188Z,3.90
2018-08-20T17:27:37.738Z,3.25
2018-08-20T17:30:10.317Z,3.05
2018-08-20T17:32:41.111Z,3.22
2018-08-20T17:35:12.085Z,3.60
2018-08-20T17:37:42.969Z,3.60
2018-08-20T17:40:13.439Z,3.50
2018-08-20T17:42:44.000Z,3.50
2018-08-20T17:45:14.419Z,3.90
2018-08-20T17:47:44.774Z,3.70
2018-08-20T17:50:29.382Z,3.70
2018-08-20T17:53:00.665Z,3.75
2018-08-20T17:55:31.212Z,3.93
2018-08-20T17:58:01.483Z,4.10
2018-08-20T18:00:39.972Z,4.28
2018-08-20T18:03:17.192Z,4.20
2018-08-20T18:05:52.162Z,4.00
2018-08-20T18:08:23.566Z,4.28
2018-08-20T18:10:54.078Z,4.17
2018-08-20T18:13:50.528Z,4.50
2018-08-20T18:16:22.449Z,4.97
2018-08-20T18:18:53.793Z,4.50
2018-08-20T18:21:24.192Z,4.53
2018-08-20T18:23:54.971Z,5.00
2018-08-20T18:26:30.314Z,4.47
2018-08-20T18:29:01.070Z,5.30
2018-08-20T18:31:31.482Z,4.97
2018-08-20T18:34:02.075Z,5.27
2018-08-20T18:36:32.536Z,5.13
2018-08-20T18:39:10.478Z,4.57
2018-08-20T18:42:12.544Z,5.00
2018-08-20T18:44:42.930Z,5.13
2018-08-20T18:47:14.645Z,4.70
2018-08-20T18:49:51.479Z,5.23
2018-08-20T18:52:22.786Z,5.30
2018-08-20T18:54:55.390Z,4.73
2018-08-20T18:57:27.567Z,5.20
2018-08-20T19:00:00.036Z,4.80
2018-08-20T19:02:41.787Z,5.00
2018-08-20T19:05:13.941Z,4.70
2018-08-20T19:07:44.461Z,4.70
2018-08-20T19:10:22.506Z,4.77
2018-08-20T19:12:52.781Z,4.83
2018-08-20T19:15:37.194Z,4.90
2018-08-20T19:18:08.950Z,4.83
2018-08-20T19:20:40.095Z,4.20
2018-08-20T19:23:10.673Z,4.67
2018-08-20T19:25:41.104Z,4.60
2018-08-20T19:28:15.495Z,4.50
2018-08-20T19:30:46.095Z,4.23
2018-08-20T19:33:20.618Z,4.53
2018-08-20T19:35:52.846Z,4.70
2018-08-20T19:38:23.436Z,4.53
2018-08-20T19:41:02.713Z,4.37
2018-08-20T19:43:38.011Z,4.60
2018-08-20T19:46:08.412Z,5.20
2018-08-20T19:48:38.968Z,4.60
2018-08-20T19:51:10.731Z,4.70
2018-08-20T19:53:41.332Z,4.33
2018-08-20T19:56:14.145Z,4.97
2018-08-20T19:58:44.926Z,4.80
2018-08-20T20:01:18.029Z,4.60
2018-08-20T20:03:50.096Z,4.50
2018-08-20T20:06:20.435Z,4.70
2018-08-20T20:08:50.928Z,4.23
2018-08-20T20:11:26.310Z,4.60
2018-08-20T20:13:59.096Z,4.30
2018-08-20T20:16:37.328Z,4.63
2018-08-20T20:19:07.755Z,4.57
2018-08-20T20:21:38.368Z,4.40
2018-08-20T20:24:09.255Z,4.60
2018-08-20T20:26:39.871Z,4.73
2018-08-20T20:29:11.211Z,4.73
2018-08-20T20:31:42.570Z,4.67
2018-08-20T20:34:13.582Z,4.50
2018-08-20T20:36:44.982Z,4.77
2018-08-20T20:39:15.395Z,4.53
2018-08-20T20:41:45.714Z,4.47
2018-08-20T20:44:16.063Z,4.90
2018-08-20T20:46:46.653Z,4.77
2018-08-20T20:49:17.088Z,4.90
2018-08-20T20:51:47.779Z,4.60
2018-08-20T20:54:18.257Z,4.60
2018-08-20T20:56:48.803Z,4.53
2018-08-20T20:59:19.253Z,4.70
2018-08-20T21:01:49.931Z,4.67
2018-08-20T21:04:20.340Z,4.90
2018-08-20T21:06:50.870Z,4.90
2018-08-20T21:09:21.340Z,4.90
2018-08-20T21:11:51.797Z,4.80
2018-08-20T21:14:22.134Z,5.37
2018-08-20T21:16:52.635Z,5.30
2018-08-20T21:19:23.185Z,5.33
2018-08-20T21:21:53.628Z,5.10
2018-08-20T21:24:24.006Z,5.20
2018-08-20T21:26:54.578Z,4.77
2018-08-20T21:29:26.195Z,5.00
2018-08-20T21:31:56.608Z,5.27
2018-08-20T21:34:32.141Z,5.03
2018-08-20T21:37:02.744Z,5.17
2018-08-20T21:39:33.088Z,5.23
2018-08-20T21:42:03.677Z,5.20
2018-08-20T21:44:34.439Z,5.30
2018-08-20T21:47:17.264Z,5.17
2018-08-20T21:49:47.684Z,5.27
2018-08-20T21:52:18.424Z,5.60
2018-08-20T21:54:48.862Z,5.67
2018-08-20T21:57:19.343Z,5.23
2018-08-20T22:00:14.609Z,5.67
2018-08-20T22:02:48.833Z,5.57
2018-08-20T22:05:19.138Z,5.37
2018-08-20T22:07:49.671Z,5.57
2018-08-20T22:10:20.014Z,5.63
2018-08-20T22:12:50.368Z,5.67
2018-08-20T22:15:20.809Z,5.80
2018-08-20T22:17:51.263Z,5.70
2018-08-20T22:20:22.082Z,5.80
2018-08-20T22:22:52.584Z,5.83
2018-08-20T22:25:23.143Z,6.30
2018-08-20T22:27:55.903Z,6.07
2018-08-20T22:30:26.306Z,6.20
2018-08-20T22:32:56.655Z,5.80
2018-08-20T22:35:27.760Z,5.67
2018-08-20T22:37:58.143Z,6.17
2018-08-20T22:40:29.059Z,5.70
2018-08-20T22:42:59.884Z,6.07
2018-08-20T22:45:33.862Z,5.70
2018-08-20T22:48:04.464Z,5.97
2018-08-20T22:50:34.935Z,5.97
2018-08-20T22:53:05.954Z,6.20
2018-08-20T22:55:36.404Z,5.70
2018-08-20T22:58:11.909Z,6.03
2018-08-20T23:00:42.585Z,5.70
2018-08-20T23:03:13.801Z,6.40
2018-08-20T23:05:45.993Z,6.10
2018-08-20T23:08:18.220Z,5.87
2018-08-20T23:10:48.825Z,6.30
2018-08-20T23:13:19.362Z,6.30
2018-08-20T23:15:49.834Z,5.87
2018-08-20T23:18:20.389Z,6.27
2018-08-20T23:20:50.828Z,5.97
2018-08-20T23:23:26.426Z,6.43
2018-08-20T23:26:00.763Z,6.30
2018-08-20T23:28:31.481Z,6.10
2018-08-20T23:31:02.258Z,6.87
2018-08-20T23:33:33.564Z,6.70
2018-08-20T23:36:03.936Z,6.60
2018-08-20T23:38:34.389Z,6.53
2018-08-20T23:41:04.788Z,6.60
2018-08-20T23:43:35.323Z,7.40
2018-08-20T23:46:05.700Z,6.70
2018-08-20T23:48:36.292Z,6.97
2018-08-20T23:51:07.333Z,6.77
2018-08-20T23:53:37.651Z,6.67
2018-08-20T23:56:08.065Z,6.70
2018-08-20T23:58:38.697Z,6.57
